Time;durP1;ratioP1;P1;durP2;ratioP2;P2;SDS_P1;SDS_P2;PMS_P1;PMS_P2;Temp;Humidity;BMP_temperature;BMP_pressure;BME280_temperature;BME280_humidity;BME280_pressure;Samples;Min_cycle;Max_cycle;Signal;HPM_P1;HPM_P2
2023/06/03 00:01:56;;;;;;;13.48;6.65;;;12.90;99.90;;;12.21;100.00;101342.84;4152845;28;20045;-76
2023/06/03 00:03:57;;;;;;;18.15;6.82;;;12.80;99.90;;;12.24;100.00;101349.66;4185845;28;20025;-77
2023/06/03 00:05:59;;;;;;;13.88;7.13;;;12.80;99.90;;;12.20;100.00;101346.47;4170419;28;20025;-77
2023/06/03 00:08:00;;;;;;;13.00;6.32;;;12.80;99.90;;;12.16;100.00;101340.66;4170329;28;20037;-77
2023/06/03 00:10:01;;;;;;;17.67;6.28;;;12.70;99.90;;;12.05;100.00;101325.03;4169257;28;20039;-77
2023/06/03 00:12:02;;;;;;;17.92;7.07;;;12.70;99.90;;;12.06;100.00;101339.91;4169136;28;20512;-77
2023/06/03 00:14:04;;;;;;;17.60;6.88;;;12.70;99.90;;;12.01;100.00;101334.22;4185372;28;20045;-77
2023/06/03 00:16:06;;;;;;;11.27;5.32;;;12.60;99.90;;;12.02;100.00;101330.59;4166218;28;20041;-77
2023/06/03 00:18:07;;;;;;;15.55;6.85;;;12.60;99.90;;;11.94;100.00;101327.91;4136486;28;20529;-77
2023/06/03 00:20:09;;;;;;;14.52;6.13;;;12.60;99.90;;;11.81;100.00;101314.22;4169096;28;20064;-77
2023/06/03 00:22:10;;;;;;;14.55;6.55;;;12.50;99.90;;;11.83;100.00;101327.25;4157754;28;20109;-77
2023/06/03 00:24:14;;;;;;;14.00;6.03;;;12.50;99.90;;;11.77;100.00;101312.84;4152731;28;20026;-76
2023/06/03 00:26:16;;;;;;;18.35;7.45;;;12.50;99.90;;;11.81;100.00;101330.06;4152704;28;20061;-77
2023/06/03 00:28:16;;;;;;;13.88;6.40;;;12.50;99.90;;;11.81;100.00;101334.50;4161915;28;20068;-77
2023/06/03 00:30:17;;;;;;;16.05;8.02;;;12.50;99.90;;;11.68;100.00;101316.34;4152569;28;20030;-77
2023/06/03 00:32:18;;;;;;;12.23;6.50;;;12.40;99.90;;;11.78;100.00;101334.81;4152491;28;20519;-77
2023/06/03 00:34:19;;;;;;;15.13;6.43;;;12.40;99.90;;;11.74;100.00;101336.91;4153578;28;20038;-77
2023/06/03 00:36:20;;;;;;;17.73;6.95;;;12.40;99.90;;;11.59;100.00;101318.06;4153677;28;20063;-77
2023/06/03 00:38:21;;;;;;;16.58;7.32;;;12.30;99.90;;;11.55;100.00;101318.53;4153311;28;20080;-77
2023/06/03 00:40:22;;;;;;;15.23;7.10;;;12.30;99.90;;;11.50;100.00;101315.47;4135859;28;20030;-77
2023/06/03 00:42:23;;;;;;;13.70;6.95;;;12.30;99.90;;;11.47;100.00;101318.41;4159634;28;20048;-77
2023/06/03 00:44:24;;;;;;;18.48;6.57;;;12.20;99.90;;;11.55;100.00;101337.84;4169831;28;20095;-77
2023/06/03 00:46:26;;;;;;;15.95;7.10;;;12.20;99.90;;;11.44;100.00;101319.53;4168552;28;20034;-77
2023/06/03 00:48:27;;;;;;;13.88;6.25;;;12.20;99.90;;;11.33;100.00;101309.19;4152209;28;20022;-77
2023/06/03 00:50:28;;;;;;;15.13;7.45;;;12.10;99.90;;;11.41;100.00;101319.03;4168616;28;20030;-76
2023/06/03 00:52:31;;;;;;;10.70;5.88;;;12.10;99.90;;;11.40;100.00;101323.47;4185143;28;20389;-77
2023/06/03 00:54:32;;;;;;;15.50;7.13;;;12.10;99.90;;;11.37;100.00;101320.28;4184760;28;20090;-77
2023/06/03 00:56:44;;;;;;;17.75;7.07;;;12.00;99.90;;;11.42;100.00;101323.31;4185060;28;20034;-77
2023/06/03 00:58:45;;;;;;;19.38;7.93;;;12.00;99.90;;;11.35;100.00;101324.91;4169674;28;20029;-77
2023/06/03 01:00:47;;;;;;;12.00;6.40;;;12.00;99.90;;;11.24;100.00;101310.06;4152201;28;20037;-77
2023/06/03 01:02:48;;;;;;;19.85;7.25;;;12.00;99.90;;;11.38;100.00;101332.53;4177256;28;20021;-77
2023/06/03 01:04:51;;;;;;;20.83;7.72;;;12.00;99.90;;;11.33;100.00;101332.13;4152437;28;20464;-77
2023/06/03 01:07:04;;;;;;;18.73;6.80;;;11.90;99.90;;;11.31;100.00;101331.44;4153192;28;20061;-77
2023/06/03 01:09:26;;;;;;;16.98;6.75;;;11.90;99.90;;;11.22;100.00;101319.13;4152902;28;20041;-77
2023/06/03 01:11:30;;;;;;;15.73;6.57;;;11.90;99.90;;;11.26;100.00;101331.06;4142500;28;20030;-77
2023/06/03 01:13:49;;;;;;;19.45;6.93;;;11.80;99.90;;;11.04;100.00;101301.41;4153277;28;20040;-77
2023/06/03 01:15:55;;;;;;;18.80;7.32;;;11.80;99.90;;;11.18;100.00;101325.66;4166980;28;20048;-77
2023/06/03 01:18:03;;;;;;;15.07;7.30;;;11.80;99.90;;;11.06;100.00;101304.72;4168158;28;20037;-77
2023/06/03 01:20:10;;;;;;;13.50;7.53;;;11.80;99.90;;;11.10;100.00;101323.75;4168179;28;20542;-77
2023/06/03 01:22:12;;;;;;;18.48;6.55;;;11.80;99.90;;;11.05;100.00;101318.09;4155285;28;20021;-77
2023/06/03 01:24:20;;;;;;;16.75;6.60;;;11.70;99.90;;;10.96;100.00;101306.56;4135408;28;20034;-77
2023/06/03 01:26:22;;;;;;;18.15;6.70;;;11.70;99.90;;;11.10;100.00;101336.94;4135358;28;20568;-77
2023/06/03 01:28:28;;;;;;;20.85;7.20;;;11.70;99.90;;;11.06;100.00;101330.28;4151722;28;20034;-77
2023/06/03 01:30:29;;;;;;;18.52;7.80;;;11.70;99.90;;;10.96;100.00;101313.66;4151707;28;20026;-77
2023/06/03 01:32:30;;;;;;;22.23;7.50;;;11.70;99.90;;;11.02;100.00;101335.00;4151664;28;20034;-77
2023/06/03 01:34:32;;;;;;;16.10;7.72;;;11.60;99.90;;;10.78;100.00;101299.56;4135405;28;20121;-77
2023/06/03 01:36:36;;;;;;;13.52;7.43;;;11.60;99.90;;;10.80;100.00;101298.44;4163695;28;20022;-77
2023/06/03 01:38:37;;;;;;;21.60;7.85;;;11.60;99.90;;;10.79;100.00;101304.69;4167520;28;20037;-77
2023/06/03 01:40:39;;;;;;;14.93;6.75;;;11.50;99.90;;;10.67;100.00;101279.44;4167866;28;20060;-77
2023/06/03 01:42:40;;;;;;;15.65;6.20;;;11.50;99.90;;;10.80;100.00;101305.50;4151648;28;20512;-77
2023/06/03 01:44:41;;;;;;;15.02;6.50;;;11.50;99.90;;;10.68;100.00;101285.56;4167898;28;20124;-77
2023/06/03 01:46:42;;;;;;;19.58;7.03;;;11.50;99.90;;;10.60;100.00;101286.28;4168979;28;20017;-77
2023/06/03 01:48:44;;;;;;;21.70;7.45;;;11.50;99.90;;;10.74;100.00;101306.94;4168958;28;20075;-77
2023/06/03 01:50:45;;;;;;;21.33;6.72;;;11.40;99.90;;;10.79;100.00;101320.50;4168243;28;20018;-77
2023/06/03 01:52:46;;;;;;;12.40;6.30;;;11.40;99.90;;;10.70;100.00;101313.44;4168477;28;20098;-77
2023/06/03 01:54:50;;;;;;;21.63;6.82;;;11.40;99.90;;;10.68;100.00;101310.13;4168767;28;20025;-77
2023/06/03 01:56:54;;;;;;;15.43;6.88;;;11.40;99.90;;;10.73;100.00;101331.63;4167752;28;20033;-77
2023/06/03 01:58:55;;;;;;;22.08;7.88;;;11.40;99.90;;;10.63;100.00;101312.38;4167997;28;20060;-77
2023/06/03 02:00:56;;;;;;;15.52;6.65;;;11.30;99.90;;;10.56;100.00;101308.63;4168765;28;20036;-77
2023/06/03 02:02:57;;;;;;;16.10;6.72;;;11.30;99.90;;;10.46;100.00;101300.72;4167507;28;20037;-77
2023/06/03 02:04:58;;;;;;;18.42;7.10;;;11.30;99.90;;;10.57;100.00;101319.03;4168886;28;20112;-76
2023/06/03 02:07:00;;;;;;;20.33;7.30;;;11.30;99.90;;;10.50;100.00;101312.69;4167902;28;20524;-77
2023/06/03 02:09:03;;;;;;;21.27;7.93;;;11.20;99.90;;;10.31;100.00;101282.84;4167501;28;20080;-76
2023/06/03 02:11:04;;;;;;;15.68;6.72;;;11.20;99.90;;;10.43;100.00;101316.00;4176905;28;20424;-77
2023/06/03 02:13:05;;;;;;;14.65;6.63;;;11.20;99.90;;;10.31;100.00;101299.50;4151092;28;20030;-77
2023/06/03 02:15:07;;;;;;;17.48;6.20;;;11.20;99.90;;;10.53;100.00;101330.03;4176584;28;20037;-77
2023/06/03 02:17:08;;;;;;;23.65;7.13;;;11.10;99.90;;;10.50;100.00;101335.56;4151070;28;20569;-77
2023/06/03 02:19:17;;;;;;;15.02;6.47;;;11.20;99.90;;;10.48;100.00;101330.44;4168466;28;20034;-76
2023/06/03 02:21:18;;;;;;;21.60;7.25;;;11.10;99.90;;;10.31;100.00;101303.94;4167452;28;20420;-77
2023/06/03 02:23:21;;;;;;;17.15;7.03;;;11.10;99.90;;;10.28;100.00;101312.13;4163533;28;20053;-77
2023/06/03 02:25:24;;;;;;;12.02;6.65;;;11.10;99.90;;;10.24;100.00;101306.31;4168740;28;20087;-77
2023/06/03 02:27:27;;;;;;;16.38;7.43;;;11.00;99.90;;;10.37;100.00;101325.31;4184163;28;20021;-77
2023/06/03 02:29:29;;;;;;;18.20;7.27;;;11.00;99.90;;;10.32;100.00;101324.91;4167671;28;20037;-77
2023/06/03 02:31:30;;;;;;;12.00;6.07;;;11.00;99.90;;;10.32;100.00;101327.53;4168566;28;20053;-76
2023/06/03 02:33:43;;;;;;;17.48;7.28;;;11.00;99.90;;;10.21;100.00;101306.59;4150859;28;20497;-77
2023/06/03 02:35:44;;;;;;;16.67;8.23;;;11.00;99.90;;;10.28;100.00;101325.31;4168539;28;20048;-77
2023/06/03 02:37:45;;;;;;;20.90;7.70;;;10.90;99.90;;;10.16;100.00;101314.09;4168401;28;20567;-77
2023/06/03 02:39:46;;;;;;;13.23;6.82;;;10.90;99.90;;;10.15;100.00;101309.81;4168448;28;20113;-77
2023/06/03 02:41:48;;;;;;;15.85;6.45;;;10.90;99.90;;;10.14;100.00;101304.66;4168283;28;20416;-77
2023/06/03 02:43:48;;;;;;;21.30;7.88;;;10.90;99.90;;;10.18;100.00;101308.69;4167455;28;20475;-77
2023/06/03 02:45:49;;;;;;;23.83;7.50;;;10.80;99.90;;;10.19;100.00;101320.88;4163942;28;20037;-77
2023/06/03 02:47:50;;;;;;;15.32;6.40;;;10.80;99.90;;;10.11;100.00;101315.44;4167014;28;20088;-77
2023/06/03 02:49:51;;;;;;;25.48;8.50;;;10.80;99.90;;;10.06;100.00;101309.75;4168231;28;20405;-77
2023/06/03 02:51:52;;;;;;;13.52;7.07;;;10.80;99.90;;;9.90;100.00;101291.84;4168562;28;20022;-77
2023/06/03 02:53:53;;;;;;;18.38;5.85;;;10.80;99.90;;;10.10;100.00;101333.06;4168311;28;20116;-76
2023/06/03 02:55:55;;;;;;;14.82;6.93;;;10.70;99.90;;;9.89;100.00;101298.09;4168374;28;20496;-77
2023/06/03 02:57:55;;;;;;;18.38;7.32;;;10.70;99.90;;;9.90;100.00;101300.59;4151137;28;20463;-77
2023/06/03 02:59:57;;;;;;;18.35;7.25;;;10.70;99.90;;;10.04;100.00;101325.69;4168382;28;20017;-77
2023/06/03 03:01:58;;;;;;;16.02;7.20;;;10.70;99.90;;;9.82;100.00;101292.56;4167364;28;20030;-77
2023/06/03 03:03:59;;;;;;;19.95;7.35;;;10.70;99.90;;;9.97;100.00;101317.50;4171669;28;20558;-77
2023/06/03 03:06:04;;;;;;;21.38;7.63;;;10.60;99.90;;;9.88;100.00;101313.09;4171306;28;20040;-77
2023/06/03 03:08:05;;;;;;;17.83;8.93;;;10.60;99.90;;;9.75;100.00;101301.97;4170352;28;20175;-77
2023/06/03 03:10:06;;;;;;;18.73;6.70;;;10.60;99.90;;;9.73;100.00;101292.56;4171421;28;20034;-77
2023/06/03 03:12:08;;;;;;;14.88;8.23;;;10.60;99.90;;;9.85;100.00;101316.00;4171365;28;20033;-77
2023/06/03 03:14:09;;;;;;;17.10;6.85;;;10.50;99.90;;;9.68;100.00;101292.09;4153571;28;20029;-77
2023/06/03 03:16:11;;;;;;;17.65;7.20;;;10.50;99.90;;;9.67;100.00;101296.56;4169045;28;20042;-77
2023/06/03 03:18:12;;;;;;;20.45;7.10;;;10.50;99.90;;;9.72;100.00;101307.53;4171195;28;20104;-77
2023/06/03 03:20:15;;;;;;;18.27;8.68;;;10.50;99.90;;;9.76;100.00;101319.47;4169535;28;20084;-77
2023/06/03 03:22:16;;;;;;;17.67;6.68;;;10.50;99.90;;;9.72;100.00;101315.41;4165573;28;20064;-77
2023/06/03 03:24:19;;;;;;;21.13;7.47;;;10.50;99.90;;;9.61;100.00;101310.28;4154624;28;20485;-77
2023/06/03 03:26:21;;;;;;;17.88;6.78;;;10.40;99.90;;;9.59;100.00;101304.28;4153412;28;20118;-77
2023/06/03 03:28:23;;;;;;;18.00;6.88;;;10.40;99.90;;;9.52;100.00;101290.03;4166017;28;20025;-77
2023/06/03 03:30:24;;;;;;;18.02;7.32;;;10.40;99.90;;;9.75;100.00;101341.50;4155540;28;20034;-77
2023/06/03 03:32:25;;;;;;;16.00;6.68;;;10.40;99.90;;;9.60;100.00;101318.31;4154624;28;20397;-77
2023/06/03 03:34:26;;;;;;;14.35;6.47;;;10.40;99.90;;;9.62;100.00;101325.09;4154517;28;20061;-77
2023/06/03 03:36:30;;;;;;;18.73;6.50;;;10.40;99.90;;;9.54;100.00;101321.47;4154767;28;20033;-77
2023/06/03 03:38:31;;;;;;;;;;;10.40;99.90;;;9.66;100.00;101344.09;4137720;28;20045;-77
2023/06/03 03:40:36;;;;;;;20.63;6.57;;;10.30;99.90;;;9.49;100.00;101313.16;4153263;28;19909;-76
2023/06/03 03:42:37;;;;;;;15.50;6.10;;;10.30;99.90;;;9.60;100.00;101332.31;4153401;28;20505;-77
2023/06/03 03:44:37;;;;;;;15.80;7.10;;;10.30;99.90;;;9.62;100.00;101337.44;4153402;28;20083;-77
2023/06/03 03:46:48;;;;;;;17.02;6.93;;;10.30;99.90;;;9.41;100.00;101309.38;4162282;28;20013;-77
2023/06/03 03:48:49;;;;;;;16.25;7.18;;;10.30;99.90;;;9.62;100.00;101350.59;4169617;28;20030;-77
2023/06/03 03:50:52;;;;;;;21.63;7.45;;;10.30;99.90;;;9.44;100.00;101321.44;4169573;28;20087;-77
2023/06/03 03:52:53;;;;;;;17.98;8.35;;;10.20;99.90;;;9.52;100.00;101333.97;4170575;28;20036;-77
2023/06/03 03:54:54;;;;;;;15.95;7.63;;;10.20;99.90;;;9.63;100.00;101345.22;4170697;28;20022;-77
2023/06/03 03:56:56;;;;;;;16.92;8.20;;;10.20;99.90;;;9.51;100.00;101329.66;4169390;28;20037;-77
2023/06/03 03:58:57;;;;;;;14.57;7.32;;;10.20;99.90;;;9.44;100.00;101309.13;4185980;28;20462;-77
2023/06/03 04:01:01;;;;;;;17.48;6.78;;;10.20;99.90;;;9.59;100.00;101338.53;4170534;28;20104;-77
2023/06/03 04:03:08;;;;;;;16.58;7.07;;;10.20;99.90;;;9.33;100.00;101289.97;4169564;28;20393;-77
2023/06/03 04:05:15;;;;;;;19.05;7.20;;;10.20;99.90;;;9.49;100.00;101321.91;4153297;28;20034;-77
2023/06/03 04:07:20;;;;;;;14.73;6.88;;;10.20;99.90;;;9.36;100.00;101293.16;4169194;28;20088;-77
2023/06/03 04:09:20;;;;;;;13.60;7.15;;;10.20;99.90;;;9.36;100.00;101294.97;4168970;28;20029;-77
2023/06/03 04:11:26;;;;;;;21.75;8.05;;;10.20;99.90;;;9.53;100.00;101319.84;4152889;28;20552;-77
2023/06/03 04:13:27;;;;;;;16.77;6.38;;;10.20;99.90;;;9.44;100.00;101308.28;4185158;28;20084;-77
2023/06/03 04:15:36;;;;;;;25.50;8.38;;;10.20;99.90;;;9.41;100.00;101303.28;4152247;28;20042;-77
2023/06/03 04:17:40;;;;;;;18.00;6.97;;;10.20;99.90;;;9.47;100.00;101310.63;4182182;28;20181;-77
2023/06/03 04:19:47;;;;;;;20.90;7.80;;;10.10;99.90;;;9.48;100.00;101314.13;4153994;28;20108;-77
2023/06/03 04:21:48;;;;;;;15.10;6.85;;;10.10;99.90;;;9.43;100.00;101315.38;4153840;28;20436;-77
2023/06/03 04:23:50;;;;;;;15.27;6.78;;;10.10;99.90;;;9.49;100.00;101324.53;4170159;28;20060;-77
2023/06/03 04:25:53;;;;;;;18.45;6.80;;;10.10;99.90;;;9.33;100.00;101295.22;4170317;28;20030;-77
2023/06/03 04:27:54;;;;;;;17.90;7.68;;;10.10;99.90;;;9.50;100.00;101320.09;4170196;28;20022;-77
2023/06/03 04:29:56;;;;;;;16.15;8.00;;;10.20;99.90;;;9.29;100.00;101288.56;4169073;28;20186;-77
2023/06/03 04:31:57;;;;;;;19.95;7.25;;;10.10;99.90;;;9.48;100.00;101322.84;4169959;28;20487;-77
2023/06/03 04:33:58;;;;;;;18.38;8.00;;;10.10;99.90;;;9.22;100.00;101282.19;4168836;28;20038;-77
2023/06/03 04:35:59;;;;;;;16.20;6.68;;;10.10;99.90;;;9.42;100.00;101315.50;4170049;28;20053;-77
2023/06/03 04:38:02;;;;;;;14.40;6.32;;;10.20;99.90;;;9.40;100.00;101299.00;4152105;28;20053;-77
2023/06/03 04:40:04;;;;;;;14.77;6.53;;;10.20;99.90;;;9.40;100.00;101302.47;4185209;28;20626;-77
2023/06/03 04:42:07;;;;;;;17.88;6.45;;;10.20;99.90;;;9.51;100.00;101319.13;4152294;28;20119;-77
2023/06/03 04:44:11;;;;;;;25.90;7.82;;;10.20;99.90;;;9.45;100.00;101312.59;4169926;28;20017;-77
2023/06/03 04:46:12;;;;;;;15.48;6.68;;;10.20;99.90;;;9.55;100.00;101321.34;4168728;28;20037;-77
2023/06/03 04:48:13;;;;;;;16.55;7.40;;;10.20;99.90;;;9.56;100.00;101317.72;4169667;28;20029;-77
2023/06/03 04:50:19;;;;;;;15.95;6.30;;;10.20;99.90;;;9.57;100.00;101313.31;4168727;28;20041;-77
2023/06/03 04:52:22;;;;;;;18.70;8.85;;;10.20;99.90;;;9.49;100.00;101298.19;4168726;28;20554;-77
2023/06/03 04:54:23;;;;;;;14.70;6.72;;;10.20;99.90;;;9.62;100.00;101322.47;4168304;28;20542;-77
2023/06/03 04:56:25;;;;;;;19.02;7.05;;;10.20;99.90;;;9.65;100.00;101321.34;4169576;28;20053;-77
2023/06/03 04:58:26;;;;;;;18.55;6.45;;;10.30;99.90;;;9.64;100.00;101320.53;4164737;28;20053;-77
2023/06/03 05:00:27;;;;;;;18.83;7.43;;;10.30;99.90;;;9.59;100.00;101306.94;4168512;28;20024;-77
2023/06/03 05:02:29;;;;;;;18.60;6.90;;;10.30;99.90;;;9.67;100.00;101319.44;4168455;28;20025;-77
2023/06/03 05:04:33;;;;;;;18.15;8.40;;;10.30;99.90;;;9.56;100.00;101295.84;4168429;28;20099;-77
2023/06/03 05:06:36;;;;;;;9.50;6.50;;;10.30;99.90;;;9.68;100.00;101311.38;4168502;28;20057;-77
2023/06/03 05:08:40;;;;;;;17.23;7.43;;;10.40;99.90;;;9.81;100.00;101333.03;4169327;28;20029;-77
2023/06/03 05:10:41;;;;;;;24.20;7.80;;;10.40;99.90;;;9.68;100.00;101316.66;4168267;28;20140;-77
2023/06/03 05:12:42;;;;;;;15.15;6.85;;;10.40;99.90;;;9.61;100.00;101297.13;4184928;28;20029;-77
2023/06/03 05:14:46;;;;;;;19.30;6.95;;;10.40;99.90;;;9.88;100.00;101335.97;4151748;28;20113;-77
2023/06/03 05:16:47;;;;;;;;;;;10.50;99.90;;;9.83;100.00;101332.88;4153600;28;20030;-77
2023/06/03 05:18:48;;;;;;;12.10;6.65;;;10.50;99.90;;;9.90;100.00;101337.50;4141179;28;19909;-77
2023/06/03 05:20:49;;;;;;;18.10;6.95;;;10.50;99.90;;;9.86;100.00;101328.19;4169181;28;20041;-77
2023/06/03 05:22:50;;;;;;;13.07;6.85;;;10.60;99.90;;;9.92;100.00;101327.63;4159567;28;20057;-77
2023/06/03 05:24:51;;;;;;;17.55;7.45;;;10.60;99.90;;;9.83;100.00;101309.19;4135469;28;21060;-77
2023/06/03 05:26:54;;;;;;;14.73;6.68;;;10.60;99.90;;;9.83;100.00;101304.75;4153118;28;20030;-77
2023/06/03 05:28:55;;;;;;;12.82;6.97;;;10.60;99.90;;;10.08;100.00;101337.66;4157801;28;20036;-77
2023/06/03 05:30:56;;;;;;;14.95;7.13;;;10.70;99.90;;;10.10;100.00;101333.06;4168038;28;20424;-77
2023/06/03 05:32:57;;;;;;;12.43;6.55;;;10.70;99.90;;;10.05;100.00;101318.63;4169049;28;20037;-77
2023/06/03 05:34:58;;;;;;;17.90;7.28;;;10.70;99.90;;;9.94;100.00;101295.91;4169091;28;20057;-77
2023/06/03 05:36:59;;;;;;;17.48;7.07;;;10.80;99.90;;;10.15;100.00;101328.25;4169111;28;20401;-77
2023/06/03 05:39:00;;;;;;;18.55;7.35;;;10.80;99.90;;;10.05;100.00;101301.03;4166686;28;20472;-77
2023/06/03 05:41:03;;;;;;;17.02;7.00;;;10.80;99.90;;;10.03;100.00;101305.59;4169120;28;20037;-78
2023/06/03 05:43:04;;;;;;;15.05;6.53;;;10.90;99.90;;;10.16;100.00;101310.59;4151721;28;20092;-77
2023/06/03 05:45:06;;;;;;;15.90;7.25;;;10.90;99.90;;;10.27;100.00;101324.50;4167962;28;20476;-77
2023/06/03 05:47:07;;;;;;;15.57;6.45;;;11.00;99.90;;;10.38;100.00;101334.06;4151484;28;20030;-78
2023/06/03 05:49:10;;;;;;;15.23;7.63;;;11.00;99.90;;;10.40;100.00;101326.84;4176415;28;20033;-77
2023/06/03 05:51:13;;;;;;;15.60;7.17;;;11.00;99.90;;;10.29;100.00;101308.53;4151566;28;20032;-78
2023/06/03 05:53:14;;;;;;;20.23;7.53;;;11.10;99.90;;;10.29;100.00;101297.97;4151243;28;20042;-78
2023/06/03 05:55:16;;;;;;;14.55;6.47;;;11.10;99.90;;;10.41;100.00;101310.88;4155934;28;20512;-78
2023/06/03 05:57:19;;;;;;;16.75;7.10;;;11.20;99.90;;;10.66;100.00;101333.19;4151638;28;20136;-77
2023/06/03 05:59:20;;;;;;;19.47;7.80;;;11.20;99.90;;;10.70;100.00;101326.66;4163665;28;20059;-78
2023/06/03 06:01:21;;;;;;;30.17;8.98;;;11.20;99.90;;;10.77;100.00;101326.91;4184035;28;20633;-77
2023/06/03 06:03:22;;;;;;;19.80;7.47;;;11.30;99.90;;;10.85;100.00;101333.13;4168774;28;20029;-78
2023/06/03 06:05:23;;;;;;;15.32;7.28;;;11.40;99.90;;;10.83;100.00;101318.41;4163957;28;20026;-77
2023/06/03 06:07:23;;;;;;;16.17;6.97;;;11.40;99.90;;;10.93;100.00;101329.78;4164099;28;20033;-77
2023/06/03 06:09:27;;;;;;;12.27;6.65;;;11.50;99.90;;;10.93;100.00;101338.53;4157857;28;20076;-77
2023/06/03 06:11:28;;;;;;;16.92;7.57;;;11.50;99.90;;;11.03;100.00;101339.34;4151322;28;20485;-77
2023/06/03 06:13:29;;;;;;;14.93;7.68;;;11.60;99.90;;;11.08;100.00;101339.72;4170051;28;20040;-77
2023/06/03 06:15:30;;;;;;;16.60;7.75;;;11.60;99.90;;;10.98;100.00;101312.53;4147318;28;20045;-77
2023/06/03 06:17:31;;;;;;;18.65;7.57;;;11.70;99.90;;;11.02;100.00;101321.81;4151459;28;20428;-77
2023/06/03 06:19:35;;;;;;;21.10;7.72;;;11.80;99.90;;;11.19;100.00;101343.16;4155707;28;20104;-77
2023/06/03 06:21:38;;;;;;;13.35;6.50;;;11.80;99.90;;;11.14;100.00;101319.81;4135042;28;20037;-77
2023/06/03 06:23:43;;;;;;;16.73;6.65;;;11.80;99.90;;;11.34;100.00;101339.06;4168262;28;20037;-77
2023/06/03 06:25:53;;;;;;;18.98;7.47;;;11.90;99.90;;;11.37;100.00;101325.56;4154217;28;20026;-76
2023/06/03 06:27:54;;;;;;;16.70;7.32;;;12.00;99.90;;;11.42;100.00;101328.59;4168279;28;20026;-76
2023/06/03 06:29:56;;;;;;;15.80;6.95;;;12.00;99.90;;;11.57;100.00;101337.69;4148102;28;20029;-78
2023/06/03 06:31:58;;;;;;;17.77;7.85;;;12.10;99.90;;;11.61;100.00;101333.78;4167282;28;20064;-78
2023/06/03 06:34:00;;;;;;;22.85;7.72;;;12.20;99.90;;;11.61;100.00;101324.06;4168567;28;20057;-79
2023/06/03 06:36:11;;;;;;;19.13;7.20;;;12.30;99.90;;;11.72;100.00;101333.59;4167394;28;20057;-77
2023/06/03 06:38:14;;;;;;;14.82;8.40;;;12.30;99.90;;;11.81;100.00;101339.81;4153838;28;20062;-78
2023/06/03 06:40:19;;;;;;;19.02;7.88;;;12.40;99.90;;;11.84;100.00;101344.78;4170347;28;20026;-78
2023/06/03 06:42:32;;;;;;;18.65;8.18;;;12.40;99.90;;;12.00;100.00;101347.63;4170707;28;20032;-78
2023/06/03 06:44:46;;;;;;;17.08;6.75;;;12.50;99.90;;;12.02;100.00;101337.72;4170411;28;20034;-77
2023/06/03 06:46:53;;;;;;;15.57;7.20;;;12.60;99.90;;;12.12;100.00;101349.06;4154121;28;20034;-78
2023/06/03 06:48:54;;;;;;;16.88;6.88;;;12.70;99.90;;;12.20;100.00;101351.75;4165597;28;20033;-78
2023/06/03 06:50:59;;;;;;;13.23;6.47;;;12.70;99.90;;;12.33;100.00;101349.56;4167294;28;20033;-79
2023/06/03 06:53:01;;;;;;;20.38;7.20;;;12.80;99.90;;;12.50;100.00;101358.47;4168125;28;20080;-79
2023/06/03 06:55:05;;;;;;;19.38;8.00;;;12.90;99.90;;;12.54;100.00;101365.97;4170518;28;20144;-79
2023/06/03 06:57:06;;;;;;;16.65;6.97;;;13.00;99.90;;;12.55;100.00;101366.75;4170502;28;20026;-78
2023/06/03 06:59:06;;;;;;;13.98;5.72;;;13.00;99.90;;;12.53;100.00;101345.75;4163794;28;20022;-77
2023/06/03 07:01:07;;;;;;;11.90;5.57;;;13.10;99.90;;;12.65;100.00;101359.56;4153966;28;20029;-77
2023/06/03 07:03:11;;;;;;;15.57;6.22;;;13.20;99.90;;;12.79;100.00;101359.00;4153955;28;20029;-77
2023/06/03 07:05:12;;;;;;;21.48;8.80;;;13.30;99.90;;;12.71;100.00;101341.28;4137721;28;20050;-78
2023/06/03 07:07:13;;;;;;;17.75;6.35;;;13.40;99.90;;;12.84;100.00;101358.56;4153960;28;20038;-77
2023/06/03 07:09:14;;;;;;;18.05;7.40;;;13.40;99.90;;;12.85;100.00;101352.25;4160842;28;20026;-77
2023/06/03 07:11:15;;;;;;;16.05;7.75;;;13.50;99.90;;;12.97;100.00;101367.75;4170481;28;20029;-77
2023/06/03 07:13:16;;;;;;;18.85;7.55;;;13.60;99.90;;;13.00;100.00;101380.66;4171277;28;20759;-78
2023/06/03 07:15:20;;;;;;;17.05;7.57;;;13.60;99.90;;;13.03;100.00;101356.50;4171225;28;20041;-77
2023/06/03 07:17:21;;;;;;;11.68;6.60;;;13.70;99.90;;;13.09;100.00;101347.97;4155748;28;20116;-78
2023/06/03 07:19:22;;;;;;;18.38;6.85;;;13.70;99.90;;;13.21;100.00;101356.47;4163178;28;20033;-77
2023/06/03 07:21:25;;;;;;;24.40;7.60;;;13.80;99.90;;;13.38;100.00;101360.84;4170019;28;20026;-77
2023/06/03 07:23:28;;;;;;;15.50;6.82;;;13.90;99.90;;;13.41;100.00;101355.25;4171481;28;20057;-78
2023/06/03 07:25:45;;;;;;;17.13;8.68;;;14.00;99.90;;;13.44;100.00;101351.47;4153003;28;20037;-78
2023/06/03 07:27:47;;;;;;;19.80;7.20;;;14.10;99.90;;;13.47;100.00;101356.44;4152612;28;20034;-78
2023/06/03 07:29:48;;;;;;;16.13;6.43;;;14.20;99.90;;;13.55;100.00;101361.78;4165322;28;20029;-76
2023/06/03 07:31:49;;;;;;;21.08;6.72;;;14.20;99.90;;;13.64;100.00;101360.81;4170075;28;20036;-77
2023/06/03 07:33:53;;;;;;;14.48;6.90;;;14.30;99.90;;;13.83;100.00;101379.91;4168712;28;20563;-78
2023/06/03 07:35:59;;;;;;;;;;;14.40;99.90;;;13.65;100.00;101360.63;4170452;28;20080;-78
2023/06/03 07:38:00;;;;;;;17.20;6.97;;;14.50;99.90;;;13.69;100.00;101354.03;4168498;28;20469;-78
2023/06/03 07:40:01;;;;;;;16.83;6.22;;;14.40;99.90;;;13.95;100.00;101367.19;4156656;28;20029;-78
2023/06/03 07:42:03;;;;;;;19.17;6.78;;;14.50;99.90;;;13.87;100.00;101348.59;4136921;28;20034;-77
2023/06/03 07:44:13;;;;;;;19.35;7.63;;;14.60;99.90;;;14.05;100.00;101345.81;4154443;28;20032;-78
2023/06/03 07:46:15;;;;;;;18.48;7.00;;;14.70;99.90;;;14.08;100.00;101346.31;4153403;28;20026;-77
2023/06/03 07:48:17;;;;;;;15.30;7.05;;;14.80;99.90;;;14.27;100.00;101367.25;4152693;28;20022;-78
2023/06/03 07:50:24;;;;;;;20.25;8.07;;;14.90;99.90;;;14.33;100.00;101360.47;4167185;28;20029;-78
2023/06/03 07:52:25;;;;;;;13.05;6.28;;;14.90;99.90;;;14.37;100.00;101349.34;4169685;28;20042;-78
2023/06/03 07:54:28;;;;;;;11.45;6.05;;;15.00;99.90;;;14.57;100.00;101354.34;4169313;28;20075;-78
2023/06/03 07:56:29;;;;;;;16.17;6.75;;;15.10;99.90;;;14.60;100.00;101354.00;4170535;28;20030;-78
2023/06/03 07:58:34;;;;;;;14.65;6.88;;;15.20;99.90;;;14.64;100.00;101342.88;4185455;28;20072;-78
2023/06/03 08:00:39;;;;;;;16.30;7.35;;;15.30;99.90;;;14.71;100.00;101351.00;4146756;28;20026;-77
2023/06/03 08:02:40;;;;;;;14.35;6.15;;;15.40;99.90;;;14.91;100.00;101371.72;4169139;28;20021;-78
2023/06/03 08:04:41;;;;;;;18.17;7.30;;;15.40;99.90;;;14.90;100.00;101356.78;4186015;28;20032;-78
2023/06/03 08:06:49;;;;;;;13.02;5.90;;;15.50;99.90;;;14.93;100.00;101351.13;4170542;28;20078;-78
2023/06/03 08:08:50;;;;;;;14.48;7.43;;;15.50;99.90;;;15.00;100.00;101356.59;4166068;28;20028;-77
2023/06/03 08:10:50;;;;;;;14.60;6.22;;;15.60;99.90;;;15.11;100.00;101358.91;4152894;28;20528;-78
2023/06/03 08:12:51;;;;;;;13.38;6.35;;;15.70;99.90;;;15.20;100.00;101352.53;4136509;28;20038;-78
2023/06/03 08:14:52;;;;;;;14.45;6.57;;;15.80;99.90;;;15.32;100.00;101340.53;4176584;28;20706;-77
2023/06/03 08:16:55;;;;;;;14.07;5.60;;;15.90;99.90;;;15.55;100.00;101366.41;4158564;28;20033;-78
2023/06/03 08:18:57;;;;;;;13.40;6.93;;;16.00;99.90;;;15.65;99.79;101367.03;4156449;28;20021;-78
2023/06/03 08:21:02;;;;;;;13.00;5.75;;;16.10;99.90;;;15.70;97.48;101370.00;4168987;28;20029;-78
2023/06/03 08:23:04;;;;;;;10.70;5.75;;;16.20;99.90;;;15.84;98.54;101359.44;4160477;28;20026;-78